sensor_id;sensor_type;location;lat;lon;timestamp;P1;durP1;ratioP1;P2;durP2;ratioP2
15271;SDS011;7737;51.578;7.268;2023-05-13T00:01:19;10.05;;;9.05;;
15271;SDS011;7737;51.578;7.268;2023-05-13T00:03:45;10.18;;;9.00;;
15271;SDS011;7737;51.578;7.268;2023-05-13T00:06:12;11.30;;;10.18;;
15271;SDS011;7737;51.578;7.268;2023-05-13T00:08:38;10.30;;;9.27;;
15271;SDS011;7737;51.578;7.268;2023-05-13T00:11:05;10.43;;;8.23;;
15271;SDS011;7737;51.578;7.268;2023-05-13T00:13:31;10.38;;;9.13;;
15271;SDS011;7737;51.578;7.268;2023-05-13T00:15:58;9.90;;;8.90;;
15271;SDS011;7737;51.578;7.268;2023-05-13T00:18:26;10.07;;;9.25;;
15271;SDS011;7737;51.578;7.268;2023-05-13T00:20:52;10.65;;;9.75;;
15271;SDS011;7737;51.578;7.268;2023-05-13T00:23:20;10.63;;;9.75;;
15271;SDS011;7737;51.578;7.268;2023-05-13T00:25:46;10.35;;;9.45;;
15271;SDS011;7737;51.578;7.268;2023-05-13T00:28:13;10.88;;;9.38;;
15271;SDS011;7737;51.578;7.268;2023-05-13T00:30:40;10.57;;;9.68;;
15271;SDS011;7737;51.578;7.268;2023-05-13T00:33:07;11.07;;;10.10;;
15271;SDS011;7737;51.578;7.268;2023-05-13T00:35:35;10.65;;;9.85;;
15271;SDS011;7737;51.578;7.268;2023-05-13T00:38:02;11.82;;;10.68;;
15271;SDS011;7737;51.578;7.268;2023-05-13T00:40:29;10.95;;;10.05;;
15271;SDS011;7737;51.578;7.268;2023-05-13T00:42:55;10.63;;;9.48;;
15271;SDS011;7737;51.578;7.268;2023-05-13T00:45:22;11.07;;;9.93;;
15271;SDS011;7737;51.578;7.268;2023-05-13T00:47:48;12.52;;;11.32;;
15271;SDS011;7737;51.578;7.268;2023-05-13T00:50:16;12.25;;;10.25;;
15271;SDS011;7737;51.578;7.268;2023-05-13T00:52:44;12.07;;;10.88;;
15271;SDS011;7737;51.578;7.268;2023-05-13T00:55:12;11.63;;;10.52;;
15271;SDS011;7737;51.578;7.268;2023-05-13T00:57:39;10.73;;;9.63;;
15271;SDS011;7737;51.578;7.268;2023-05-13T01:00:06;10.98;;;9.75;;
15271;SDS011;7737;51.578;7.268;2023-05-13T01:02:37;11.43;;;10.27;;
15271;SDS011;7737;51.578;7.268;2023-05-13T01:05:12;11.02;;;10.13;;
15271;SDS011;7737;51.578;7.268;2023-05-13T01:07:51;11.30;;;10.32;;
15271;SDS011;7737;51.578;7.268;2023-05-13T01:10:26;11.68;;;10.52;;
15271;SDS011;7737;51.578;7.268;2023-05-13T01:13:00;14.73;;;11.00;;
15271;SDS011;7737;51.578;7.268;2023-05-13T01:15:32;11.38;;;10.48;;
15271;SDS011;7737;51.578;7.268;2023-05-13T01:18:05;12.00;;;11.00;;
15271;SDS011;7737;51.578;7.268;2023-05-13T01:20:36;12.10;;;11.07;;
15271;SDS011;7737;51.578;7.268;2023-05-13T01:23:07;11.75;;;10.55;;
15271;SDS011;7737;51.578;7.268;2023-05-13T01:25:34;13.90;;;12.45;;
15271;SDS011;7737;51.578;7.268;2023-05-13T01:28:01;11.93;;;10.85;;
15271;SDS011;7737;51.578;7.268;2023-05-13T01:30:27;12.40;;;11.07;;
15271;SDS011;7737;51.578;7.268;2023-05-13T01:32:54;14.30;;;12.15;;
15271;SDS011;7737;51.578;7.268;2023-05-13T01:35:21;11.48;;;10.48;;
15271;SDS011;7737;51.578;7.268;2023-05-13T01:37:49;10.10;;;9.20;;
15271;SDS011;7737;51.578;7.268;2023-05-13T01:40:18;10.20;;;9.15;;
15271;SDS011;7737;51.578;7.268;2023-05-13T01:42:45;11.25;;;9.50;;
15271;SDS011;7737;51.578;7.268;2023-05-13T01:45:11;11.95;;;10.85;;
15271;SDS011;7737;51.578;7.268;2023-05-13T01:47:39;11.32;;;10.32;;
15271;SDS011;7737;51.578;7.268;2023-05-13T01:50:06;12.88;;;11.77;;
15271;SDS011;7737;51.578;7.268;2023-05-13T01:52:33;16.00;;;14.60;;
15271;SDS011;7737;51.578;7.268;2023-05-13T01:55:00;17.25;;;14.85;;
15271;SDS011;7737;51.578;7.268;2023-05-13T01:57:27;17.30;;;15.68;;
15271;SDS011;7737;51.578;7.268;2023-05-13T01:59:54;17.48;;;15.88;;
15271;SDS011;7737;51.578;7.268;2023-05-13T02:02:20;18.45;;;16.85;;
15271;SDS011;7737;51.578;7.268;2023-05-13T02:04:47;18.60;;;16.95;;
15271;SDS011;7737;51.578;7.268;2023-05-13T02:07:13;18.55;;;16.95;;
15271;SDS011;7737;51.578;7.268;2023-05-13T02:09:40;20.92;;;18.92;;
15271;SDS011;7737;51.578;7.268;2023-05-13T02:12:07;17.17;;;15.57;;
15271;SDS011;7737;51.578;7.268;2023-05-13T02:14:34;15.88;;;14.27;;
15271;SDS011;7737;51.578;7.268;2023-05-13T02:17:02;16.10;;;14.35;;
15271;SDS011;7737;51.578;7.268;2023-05-13T02:19:29;15.50;;;14.10;;
15271;SDS011;7737;51.578;7.268;2023-05-13T02:21:55;16.27;;;14.77;;
15271;SDS011;7737;51.578;7.268;2023-05-13T02:24:22;16.65;;;14.98;;
15271;SDS011;7737;51.578;7.268;2023-05-13T02:26:49;18.05;;;16.35;;
15271;SDS011;7737;51.578;7.268;2023-05-13T02:29:16;16.73;;;15.15;;
15271;SDS011;7737;51.578;7.268;2023-05-13T02:31:44;19.83;;;17.90;;
15271;SDS011;7737;51.578;7.268;2023-05-13T02:34:11;21.38;;;19.40;;
15271;SDS011;7737;51.578;7.268;2023-05-13T02:36:37;18.17;;;16.60;;
15271;SDS011;7737;51.578;7.268;2023-05-13T02:39:04;19.48;;;17.67;;
15271;SDS011;7737;51.578;7.268;2023-05-13T02:41:30;17.83;;;16.27;;
15271;SDS011;7737;51.578;7.268;2023-05-13T02:43:57;18.65;;;16.85;;
15271;SDS011;7737;51.578;7.268;2023-05-13T02:46:23;17.80;;;16.10;;
15271;SDS011;7737;51.578;7.268;2023-05-13T02:48:51;19.35;;;17.58;;
15271;SDS011;7737;51.578;7.268;2023-05-13T02:51:18;17.73;;;16.13;;
15271;SDS011;7737;51.578;7.268;2023-05-13T02:53:44;17.55;;;16.05;;
15271;SDS011;7737;51.578;7.268;2023-05-13T02:56:11;18.42;;;16.70;;
15271;SDS011;7737;51.578;7.268;2023-05-13T02:58:40;18.95;;;17.05;;
15271;SDS011;7737;51.578;7.268;2023-05-13T03:01:06;17.55;;;16.15;;
15271;SDS011;7737;51.578;7.268;2023-05-13T03:03:33;18.13;;;16.48;;
15271;SDS011;7737;51.578;7.268;2023-05-13T03:06:01;17.20;;;15.63;;
15271;SDS011;7737;51.578;7.268;2023-05-13T03:08:27;20.30;;;18.15;;
15271;SDS011;7737;51.578;7.268;2023-05-13T03:10:54;17.92;;;16.42;;
15271;SDS011;7737;51.578;7.268;2023-05-13T03:13:21;17.48;;;15.55;;
15271;SDS011;7737;51.578;7.268;2023-05-13T03:15:47;16.38;;;14.95;;
15271;SDS011;7737;51.578;7.268;2023-05-13T03:18:14;17.80;;;16.05;;
15271;SDS011;7737;51.578;7.268;2023-05-13T03:20:40;16.23;;;14.70;;
15271;SDS011;7737;51.578;7.268;2023-05-13T03:23:08;15.95;;;14.45;;
15271;SDS011;7737;51.578;7.268;2023-05-13T03:25:35;15.82;;;14.43;;
15271;SDS011;7737;51.578;7.268;2023-05-13T03:28:01;16.05;;;14.45;;
15271;SDS011;7737;51.578;7.268;2023-05-13T03:30:28;17.00;;;15.50;;
15271;SDS011;7737;51.578;7.268;2023-05-13T03:32:54;15.93;;;14.50;;
15271;SDS011;7737;51.578;7.268;2023-05-13T03:35:21;15.73;;;14.23;;
15271;SDS011;7737;51.578;7.268;2023-05-13T03:37:48;15.40;;;13.98;;
15271;SDS011;7737;51.578;7.268;2023-05-13T03:40:16;15.77;;;14.38;;
15271;SDS011;7737;51.578;7.268;2023-05-13T03:42:42;16.27;;;14.88;;
15271;SDS011;7737;51.578;7.268;2023-05-13T03:45:09;13.10;;;11.90;;
15271;SDS011;7737;51.578;7.268;2023-05-13T03:47:36;14.40;;;13.20;;
15271;SDS011;7737;51.578;7.268;2023-05-13T03:50:03;15.48;;;14.13;;
15271;SDS011;7737;51.578;7.268;2023-05-13T03:52:30;16.30;;;14.77;;
15271;SDS011;7737;51.578;7.268;2023-05-13T03:54:57;14.07;;;12.88;;
15271;SDS011;7737;51.578;7.268;2023-05-13T03:57:24;13.15;;;12.05;;
15271;SDS011;7737;51.578;7.268;2023-05-13T03:59:51;12.23;;;11.13;;
15271;SDS011;7737;51.578;7.268;2023-05-13T04:02:17;12.43;;;11.30;;
15271;SDS011;7737;51.578;7.268;2023-05-13T04:04:45;13.05;;;11.85;;
15271;SDS011;7737;51.578;7.268;2023-05-13T04:07:12;14.65;;;13.25;;
15271;SDS011;7737;51.578;7.268;2023-05-13T04:09:38;14.10;;;12.90;;
15271;SDS011;7737;51.578;7.268;2023-05-13T04:12:05;12.85;;;11.68;;
15271;SDS011;7737;51.578;7.268;2023-05-13T04:14:33;13.10;;;11.90;;
15271;SDS011;7737;51.578;7.268;2023-05-13T04:17:00;13.35;;;12.15;;
15271;SDS011;7737;51.578;7.268;2023-05-13T04:19:26;13.35;;;12.25;;
15271;SDS011;7737;51.578;7.268;2023-05-13T04:21:53;14.25;;;13.05;;
15271;SDS011;7737;51.578;7.268;2023-05-13T04:24:19;11.85;;;10.95;;
15271;SDS011;7737;51.578;7.268;2023-05-13T04:26:46;12.88;;;11.77;;
15271;SDS011;7737;51.578;7.268;2023-05-13T04:29:12;12.73;;;11.52;;
15271;SDS011;7737;51.578;7.268;2023-05-13T04:31:42;14.15;;;12.85;;
15271;SDS011;7737;51.578;7.268;2023-05-13T04:34:09;13.88;;;12.77;;
15271;SDS011;7737;51.578;7.268;2023-05-13T04:36:35;14.70;;;13.48;;
15271;SDS011;7737;51.578;7.268;2023-05-13T04:39:02;14.93;;;13.70;;
15271;SDS011;7737;51.578;7.268;2023-05-13T04:41:28;16.65;;;15.13;;
15271;SDS011;7737;51.578;7.268;2023-05-13T04:43:55;15.50;;;14.18;;
15271;SDS011;7737;51.578;7.268;2023-05-13T04:46:22;16.00;;;14.60;;
15271;SDS011;7737;51.578;7.268;2023-05-13T04:48:51;13.77;;;12.52;;
15271;SDS011;7737;51.578;7.268;2023-05-13T04:51:17;14.82;;;13.60;;
15271;SDS011;7737;51.578;7.268;2023-05-13T04:53:44;13.07;;;12.00;;
15271;SDS011;7737;51.578;7.268;2023-05-13T04:56:10;13.35;;;12.15;;
15271;SDS011;7737;51.578;7.268;2023-05-13T04:58:37;13.65;;;12.55;;
15271;SDS011;7737;51.578;7.268;2023-05-13T05:01:04;13.70;;;12.60;;
15271;SDS011;7737;51.578;7.268;2023-05-13T05:03:30;14.18;;;12.88;;
15271;SDS011;7737;51.578;7.268;2023-05-13T05:05:58;13.43;;;12.35;;
15271;SDS011;7737;51.578;7.268;2023-05-13T05:08:25;14.65;;;13.27;;
15271;SDS011;7737;51.578;7.268;2023-05-13T05:10:52;14.90;;;13.45;;
15271;SDS011;7737;51.578;7.268;2023-05-13T05:13:19;17.92;;;16.20;;
15271;SDS011;7737;51.578;7.268;2023-05-13T05:15:45;15.25;;;13.95;;
15271;SDS011;7737;51.578;7.268;2023-05-13T05:18:12;17.92;;;16.05;;
15271;SDS011;7737;51.578;7.268;2023-05-13T05:20:38;18.30;;;16.50;;
15271;SDS011;7737;51.578;7.268;2023-05-13T05:23:06;17.38;;;15.57;;
15271;SDS011;7737;51.578;7.268;2023-05-13T05:25:34;16.55;;;15.15;;
15271;SDS011;7737;51.578;7.268;2023-05-13T05:28:01;19.20;;;17.40;;
15271;SDS011;7737;51.578;7.268;2023-05-13T05:30:29;18.35;;;16.80;;
15271;SDS011;7737;51.578;7.268;2023-05-13T05:32:56;17.98;;;16.30;;
15271;SDS011;7737;51.578;7.268;2023-05-13T05:35:23;18.75;;;17.10;;
15271;SDS011;7737;51.578;7.268;2023-05-13T05:37:50;18.02;;;16.42;;
15271;SDS011;7737;51.578;7.268;2023-05-13T05:40:18;17.00;;;15.57;;
15271;SDS011;7737;51.578;7.268;2023-05-13T05:42:45;17.33;;;15.77;;
15271;SDS011;7737;51.578;7.268;2023-05-13T05:45:11;18.60;;;17.10;;
15271;SDS011;7737;51.578;7.268;2023-05-13T05:47:38;18.33;;;16.73;;
15271;SDS011;7737;51.578;7.268;2023-05-13T05:50:05;17.30;;;15.82;;
15271;SDS011;7737;51.578;7.268;2023-05-13T05:52:32;18.67;;;17.08;;
15271;SDS011;7737;51.578;7.268;2023-05-13T05:54:59;18.42;;;16.77;;
15271;SDS011;7737;51.578;7.268;2023-05-13T05:57:27;18.27;;;16.67;;
15271;SDS011;7737;51.578;7.268;2023-05-13T05:59:53;17.05;;;15.65;;
15271;SDS011;7737;51.578;7.268;2023-05-13T06:02:20;16.90;;;15.40;;
15271;SDS011;7737;51.578;7.268;2023-05-13T06:04:47;16.35;;;14.85;;
15271;SDS011;7737;51.578;7.268;2023-05-13T06:07:13;15.57;;;14.27;;
15271;SDS011;7737;51.578;7.268;2023-05-13T06:09:40;15.20;;;13.90;;
15271;SDS011;7737;51.578;7.268;2023-05-13T06:12:06;15.85;;;14.52;;
15271;SDS011;7737;51.578;7.268;2023-05-13T06:14:34;16.17;;;14.88;;
15271;SDS011;7737;51.578;7.268;2023-05-13T06:17:01;14.50;;;13.10;;
15271;SDS011;7737;51.578;7.268;2023-05-13T06:19:27;15.40;;;14.00;;
15271;SDS011;7737;51.578;7.268;2023-05-13T06:21:54;14.43;;;13.23;;
15271;SDS011;7737;51.578;7.268;2023-05-13T06:24:20;15.68;;;14.20;;
15271;SDS011;7737;51.578;7.268;2023-05-13T06:26:47;14.88;;;13.68;;
15271;SDS011;7737;51.578;7.268;2023-05-13T06:29:14;14.80;;;13.38;;
15271;SDS011;7737;51.578;7.268;2023-05-13T06:31:42;14.93;;;13.73;;
15271;SDS011;7737;51.578;7.268;2023-05-13T06:34:09;14.77;;;13.38;;
15271;SDS011;7737;51.578;7.268;2023-05-13T06:36:40;14.38;;;13.05;;
15271;SDS011;7737;51.578;7.268;2023-05-13T06:39:07;14.20;;;12.90;;
15271;SDS011;7737;51.578;7.268;2023-05-13T06:41:34;14.50;;;13.10;;
15271;SDS011;7737;51.578;7.268;2023-05-13T06:44:00;12.98;;;11.88;;
15271;SDS011;7737;51.578;7.268;2023-05-13T06:46:27;13.60;;;12.30;;
15271;SDS011;7737;51.578;7.268;2023-05-13T06:48:55;12.68;;;11.32;;
15271;SDS011;7737;51.578;7.268;2023-05-13T06:51:22;13.20;;;11.95;;
15271;SDS011;7737;51.578;7.268;2023-05-13T06:53:50;14.40;;;11.40;;
15271;SDS011;7737;51.578;7.268;2023-05-13T06:56:16;11.75;;;10.55;;
15271;SDS011;7737;51.578;7.268;2023-05-13T06:58:43;11.88;;;10.77;;
15271;SDS011;7737;51.578;7.268;2023-05-13T07:01:09;13.50;;;11.15;;
15271;SDS011;7737;51.578;7.268;2023-05-13T07:03:36;12.82;;;11.63;;
15271;SDS011;7737;51.578;7.268;2023-05-13T07:06:04;11.73;;;10.73;;
15271;SDS011;7737;51.578;7.268;2023-05-13T07:08:30;12.15;;;11.02;;
15271;SDS011;7737;51.578;7.268;2023-05-13T07:10:57;11.95;;;10.68;;
15271;SDS011;7737;51.578;7.268;2023-05-13T07:13:24;12.27;;;10.98;;
15271;SDS011;7737;51.578;7.268;2023-05-13T07:15:51;11.77;;;10.68;;
15271;SDS011;7737;51.578;7.268;2023-05-13T07:18:17;14.52;;;10.77;;
15271;SDS011;7737;51.578;7.268;2023-05-13T07:20:44;12.07;;;10.85;;
15271;SDS011;7737;51.578;7.268;2023-05-13T07:23:12;11.73;;;10.30;;
15271;SDS011;7737;51.578;7.268;2023-05-13T07:25:38;11.90;;;10.80;;
15271;SDS011;7737;51.578;7.268;2023-05-13T07:28:05;11.80;;;10.20;;
15271;SDS011;7737;51.578;7.268;2023-05-13T07:30:32;10.40;;;9.40;;
15271;SDS011;7737;51.578;7.268;2023-05-13T07:32:58;10.25;;;9.18;;
15271;SDS011;7737;51.578;7.268;2023-05-13T07:35:25;9.90;;;9.02;;
15271;SDS011;7737;51.578;7.268;2023-05-13T07:37:52;11.05;;;8.93;;
15271;SDS011;7737;51.578;7.268;2023-05-13T07:40:20;8.43;;;7.68;;
15271;SDS011;7737;51.578;7.268;2023-05-13T07:42:46;8.73;;;7.85;;
15271;SDS011;7737;51.578;7.268;2023-05-13T07:45:13;8.77;;;7.93;;
15271;SDS011;7737;51.578;7.268;2023-05-13T07:47:40;9.18;;;8.27;;
15271;SDS011;7737;51.578;7.268;2023-05-13T07:50:06;9.10;;;8.25;;
15271;SDS011;7737;51.578;7.268;2023-05-13T07:52:33;7.55;;;6.90;;
15271;SDS011;7737;51.578;7.268;2023-05-13T07:55:00;9.60;;;6.32;;
15271;SDS011;7737;51.578;7.268;2023-05-13T07:57:29;7.10;;;6.50;;
15271;SDS011;7737;51.578;7.268;2023-05-13T07:59:55;7.85;;;7.15;;
15271;SDS011;7737;51.578;7.268;2023-05-13T08:02:22;7.53;;;6.82;;
15271;SDS011;7737;51.578;7.268;2023-05-13T08:04:49;10.05;;;7.50;;
15271;SDS011;7737;51.578;7.268;2023-05-13T08:07:16;7.85;;;7.15;;
15271;SDS011;7737;51.578;7.268;2023-05-13T08:09:42;7.55;;;6.85;;
15271;SDS011;7737;51.578;7.268;2023-05-13T08:12:09;7.07;;;6.13;;
15271;SDS011;7737;51.578;7.268;2023-05-13T08:14:37;7.97;;;6.78;;
15271;SDS011;7737;51.578;7.268;2023-05-13T08:17:03;7.80;;;7.00;;
15271;SDS011;7737;51.578;7.268;2023-05-13T08:19:31;6.95;;;6.28;;
15271;SDS011;7737;51.578;7.268;2023-05-13T08:21:57;7.63;;;6.82;;
15271;SDS011;7737;51.578;7.268;2023-05-13T08:24:24;6.72;;;6.13;;
15271;SDS011;7737;51.578;7.268;2023-05-13T08:26:50;7.10;;;6.28;;
15271;SDS011;7737;51.578;7.268;2023-05-13T08:29:17;7.50;;;6.05;;
15271;SDS011;7737;51.578;7.268;2023-05-13T08:31:45;7.15;;;5.38;;
15271;SDS011;7737;51.578;7.268;2023-05-13T08:34:11;6.15;;;5.53;;
15271;SDS011;7737;51.578;7.268;2023-05-13T08:36:38;7.70;;;6.05;;
15271;SDS011;7737;51.578;7.268;2023-05-13T08:39:04;6.15;;;4.78;;
15271;SDS011;7737;51.578;7.268;2023-05-13T08:41:31;7.22;;;5.63;;
15271;SDS011;7737;51.578;7.268;2023-05-13T08:43:59;6.50;;;5.57;;
15271;SDS011;7737;51.578;7.268;2023-05-13T08:46:30;6.07;;;5.28;;
15271;SDS011;7737;51.578;7.268;2023-05-13T08:49:00;7.35;;;5.75;;
15271;SDS011;7737;51.578;7.268;2023-05-13T08:51:27;6.32;;;5.30;;
15271;SDS011;7737;51.578;7.268;2023-05-13T08:53:54;6.95;;;5.07;;
15271;SDS011;7737;51.578;7.268;2023-05-13T08:56:21;5.57;;;5.07;;
15271;SDS011;7737;51.578;7.268;2023-05-13T08:58:52;6.03;;;5.45;;
15271;SDS011;7737;51.578;7.268;2023-05-13T09:01:18;6.97;;;5.68;;
15271;SDS011;7737;51.578;7.268;2023-05-13T09:03:49;6.10;;;5.50;;
15271;SDS011;7737;51.578;7.268;2023-05-13T09:06:21;5.88;;;5.38;;
15271;SDS011;7737;51.578;7.268;2023-05-13T09:08:48;6.05;;;5.50;;
15271;SDS011;7737;51.578;7.268;2023-05-13T09:11:14;5.80;;;5.05;;
15271;SDS011;7737;51.578;7.268;2023-05-13T09:13:41;8.57;;;4.95;;
15271;SDS011;7737;51.578;7.268;2023-05-13T09:16:08;6.22;;;4.60;;
15271;SDS011;7737;51.578;7.268;2023-05-13T09:18:34;4.85;;;4.30;;
15271;SDS011;7737;51.578;7.268;2023-05-13T09:23:54;7.90;;;4.85;;
15271;SDS011;7737;51.578;7.268;2023-05-13T09:26:26;4.65;;;3.95;;
15271;SDS011;7737;51.578;7.268;2023-05-13T09:29:04;4.32;;;3.92;;
15271;SDS011;7737;51.578;7.268;2023-05-13T09:31:40;4.90;;;4.05;;
15271;SDS011;7737;51.578;7.268;2023-05-13T09:34:06;4.03;;;3.55;;
15271;SDS011;7737;51.578;7.268;2023-05-13T09:36:34;5.65;;;4.00;;
15271;SDS011;7737;51.578;7.268;2023-05-13T09:39:02;6.55;;;3.75;;
15271;SDS011;7737;51.578;7.268;2023-05-13T09:41:29;4.43;;;3.78;;
15271;SDS011;7737;51.578;7.268;2023-05-13T09:43:56;4.55;;;3.75;;
15271;SDS011;7737;51.578;7.268;2023-05-13T09:46:23;4.45;;;4.05;;
15271;SDS011;7737;51.578;7.268;2023-05-13T09:48:50;4.55;;;3.72;;
15271;SDS011;7737;51.578;7.268;2023-05-13T09:51:23;6.30;;;4.28;;
15271;SDS011;7737;51.578;7.268;2023-05-13T09:53:52;7.93;;;3.90;;
15271;SDS011;7737;51.578;7.268;2023-05-13T09:56:20;5.97;;;3.85;;
15271;SDS011;7737;51.578;7.268;2023-05-13T09:58:50;5.72;;;3.85;;
15271;SDS011;7737;51.578;7.268;2023-05-13T10:01:17;4.78;;;3.60;;
15271;SDS011;7737;51.578;7.268;2023-05-13T10:03:45;5.82;;;3.53;;
15271;SDS011;7737;51.578;7.268;2023-05-13T10:06:12;5.65;;;3.63;;
15271;SDS011;7737;51.578;7.268;2023-05-13T10:08:41;7.13;;;4.05;;
15271;SDS011;7737;51.578;7.268;2023-05-13T10:11:10;5.15;;;3.88;;
15271;SDS011;7737;51.578;7.268;2023-05-13T10:13:39;5.20;;;3.35;;
15271;SDS011;7737;51.578;7.268;2023-05-13T10:16:08;5.50;;;3.40;;
15271;SDS011;7737;51.578;7.268;2023-05-13T10:18:35;5.40;;;3.90;;
15271;SDS011;7737;51.578;7.268;2023-05-13T10:21:02;5.15;;;3.50;;
15271;SDS011;7737;51.578;7.268;2023-05-13T10:23:29;4.30;;;3.42;;
15271;SDS011;7737;51.578;7.268;2023-05-13T10:25:57;3.95;;;3.45;;
15271;SDS011;7737;51.578;7.268;2023-05-13T10:28:25;5.00;;;3.53;;
15271;SDS011;7737;51.578;7.268;2023-05-13T10:30:53;5.60;;;3.65;;
15271;SDS011;7737;51.578;7.268;2023-05-13T10:33:20;3.97;;;3.17;;
15271;SDS011;7737;51.578;7.268;2023-05-13T10:35:48;4.50;;;3.42;;
15271;SDS011;7737;51.578;7.268;2023-05-13T10:38:27;5.32;;;3.80;;
15271;SDS011;7737;51.578;7.268;2023-05-13T10:41:08;4.90;;;3.67;;
15271;SDS011;7737;51.578;7.268;2023-05-13T10:43:44;4.68;;;3.88;;
15271;SDS011;7737;51.578;7.268;2023-05-13T10:46:11;5.30;;;3.42;;
15271;SDS011;7737;51.578;7.268;2023-05-13T10:48:38;5.15;;;3.58;;
15271;SDS011;7737;51.578;7.268;2023-05-13T10:51:07;4.57;;;3.40;;
15271;SDS011;7737;51.578;7.268;2023-05-13T10:53:42;6.57;;;3.22;;
15271;SDS011;7737;51.578;7.268;2023-05-13T10:56:09;3.92;;;3.50;;
15271;SDS011;7737;51.578;7.268;2023-05-13T10:58:36;3.88;;;3.30;;
15271;SDS011;7737;51.578;7.268;2023-05-13T11:01:12;6.82;;;3.20;;
15271;SDS011;7737;51.578;7.268;2023-05-13T11:03:40;4.57;;;3.50;;
15271;SDS011;7737;51.578;7.268;2023-05-13T11:06:15;5.45;;;3.03;;
15271;SDS011;7737;51.578;7.268;2023-05-13T11:08:44;3.30;;;3.00;;
15271;SDS011;7737;51.578;7.268;2023-05-13T11:11:16;5.70;;;3.33;;
15271;SDS011;7737;51.578;7.268;2023-05-13T11:13:43;4.30;;;3.28;;
15271;SDS011;7737;51.578;7.268;2023-05-13T11:16:12;5.85;;;3.17;;
15271;SDS011;7737;51.578;7.268;2023-05-13T11:18:39;5.05;;;3.05;;
15271;SDS011;7737;51.578;7.268;2023-05-13T11:21:06;3.75;;;3.20;;
15271;SDS011;7737;51.578;7.268;2023-05-13T11:23:48;5.10;;;3.28;;
15271;SDS011;7737;51.578;7.268;2023-05-13T11:26:16;4.38;;;3.03;;
15271;SDS011;7737;51.578;7.268;2023-05-13T11:28:52;4.65;;;3.30;;
15271;SDS011;7737;51.578;7.268;2023-05-13T11:31:22;3.92;;;2.90;;
15271;SDS011;7737;51.578;7.268;2023-05-13T11:34:07;3.80;;;3.40;;
15271;SDS011;7737;51.578;7.268;2023-05-13T11:36:36;4.95;;;3.15;;
15271;SDS011;7737;51.578;7.268;2023-05-13T11:39:04;6.85;;;3.22;;
15271;SDS011;7737;51.578;7.268;2023-05-13T11:41:36;6.47;;;3.20;;
15271;SDS011;7737;51.578;7.268;2023-05-13T11:44:04;3.63;;;3.10;;
15271;SDS011;7737;51.578;7.268;2023-05-13T11:46:33;4.47;;;2.80;;
15271;SDS011;7737;51.578;7.268;2023-05-13T11:49:00;4.10;;;2.85;;
15271;SDS011;7737;51.578;7.268;2023-05-13T11:51:26;5.55;;;3.13;;
15271;SDS011;7737;51.578;7.268;2023-05-13T11:54:02;4.20;;;2.83;;
15271;SDS011;7737;51.578;7.268;2023-05-13T11:56:30;3.97;;;3.00;;
15271;SDS011;7737;51.578;7.268;2023-05-13T11:59:11;3.50;;;2.63;;
15271;SDS011;7737;51.578;7.268;2023-05-13T12:01:40;4.22;;;3.20;;
15271;SDS011;7737;51.578;7.268;2023-05-13T12:04:07;5.90;;;3.13;;
15271;SDS011;7737;51.578;7.268;2023-05-13T12:06:34;4.75;;;2.58;;
15271;SDS011;7737;51.578;7.268;2023-05-13T12:09:09;3.55;;;3.00;;
15271;SDS011;7737;51.578;7.268;2023-05-13T12:11:36;3.63;;;2.78;;
15271;SDS011;7737;51.578;7.268;2023-05-13T12:14:04;4.38;;;2.33;;
15271;SDS011;7737;51.578;7.268;2023-05-13T12:16:31;2.65;;;2.45;;
15271;SDS011;7737;51.578;7.268;2023-05-13T12:19:00;3.17;;;2.88;;
15271;SDS011;7737;51.578;7.268;2023-05-13T12:21:30;2.95;;;2.70;;
15271;SDS011;7737;51.578;7.268;2023-05-13T12:23:57;4.88;;;2.95;;
15271;SDS011;7737;51.578;7.268;2023-05-13T12:26:24;3.65;;;2.88;;
15271;SDS011;7737;51.578;7.268;2023-05-13T12:28:55;6.20;;;2.70;;
15271;SDS011;7737;51.578;7.268;2023-05-13T12:31:22;4.10;;;2.53;;
15271;SDS011;7737;51.578;7.268;2023-05-13T12:33:49;3.83;;;2.55;;
15271;SDS011;7737;51.578;7.268;2023-05-13T12:36:18;3.70;;;2.78;;
15271;SDS011;7737;51.578;7.268;2023-05-13T12:38:57;4.32;;;3.00;;
15271;SDS011;7737;51.578;7.268;2023-05-13T12:41:25;5.18;;;2.80;;
15271;SDS011;7737;51.578;7.268;2023-05-13T12:43:57;2.90;;;2.67;;
15271;SDS011;7737;51.578;7.268;2023-05-13T12:46:25;3.17;;;2.40;;
15271;SDS011;7737;51.578;7.268;2023-05-13T12:48:53;3.00;;;2.60;;
15271;SDS011;7737;51.578;7.268;2023-05-13T12:51:22;3.22;;;2.72;;
15271;SDS011;7737;51.578;7.268;2023-05-13T12:53:50;6.82;;;2.80;;
15271;SDS011;7737;51.578;7.268;2023-05-13T12:56:18;4.32;;;2.65;;
15271;SDS011;7737;51.578;7.268;2023-05-13T12:58:45;3.20;;;2.60;;
15271;SDS011;7737;51.578;7.268;2023-05-13T13:01:12;3.28;;;2.72;;
15271;SDS011;7737;51.578;7.268;2023-05-13T13:03:38;3.92;;;2.85;;
15271;SDS011;7737;51.578;7.268;2023-05-13T13:06:05;5.50;;;2.92;;
15271;SDS011;7737;51.578;7.268;2023-05-13T13:08:33;4.28;;;2.80;;
15271;SDS011;7737;51.578;7.268;2023-05-13T13:11:00;3.47;;;2.80;;
15271;SDS011;7737;51.578;7.268;2023-05-13T13:13:26;3.40;;;2.78;;
15271;SDS011;7737;51.578;7.268;2023-05-13T13:15:53;3.25;;;2.55;;
15271;SDS011;7737;51.578;7.268;2023-05-13T13:18:20;2.60;;;2.40;;
15271;SDS011;7737;51.578;7.268;2023-05-13T13:20:49;2.88;;;2.40;;
15271;SDS011;7737;51.578;7.268;2023-05-13T13:23:16;3.38;;;2.67;;
15271;SDS011;7737;51.578;7.268;2023-05-13T13:25:44;4.22;;;2.83;;
15271;SDS011;7737;51.578;7.268;2023-05-13T13:28:11;2.72;;;2.53;;
15271;SDS011;7737;51.578;7.268;2023-05-13T13:30:38;4.28;;;2.60;;
15271;SDS011;7737;51.578;7.268;2023-05-13T13:33:10;3.05;;;2.70;;
15271;SDS011;7737;51.578;7.268;2023-05-13T13:35:36;3.08;;;2.88;;
15271;SDS011;7737;51.578;7.268;2023-05-13T13:38:03;3.40;;;2.65;;
15271;SDS011;7737;51.578;7.268;2023-05-13T13:40:30;4.63;;;3.03;;
15271;SDS011;7737;51.578;7.268;2023-05-13T13:42:57;5.00;;;2.30;;
15271;SDS011;7737;51.578;7.268;2023-05-13T13:45:24;3.67;;;2.88;;
15271;SDS011;7737;51.578;7.268;2023-05-13T13:47:50;4.03;;;2.80;;
15271;SDS011;7737;51.578;7.268;2023-05-13T13:50:17;4.88;;;2.72;;
15271;SDS011;7737;51.578;7.268;2023-05-13T13:52:43;3.30;;;2.55;;
15271;SDS011;7737;51.578;7.268;2023-05-13T13:55:10;3.55;;;2.70;;
15271;SDS011;7737;51.578;7.268;2023-05-13T13:57:38;3.08;;;2.70;;
15271;SDS011;7737;51.578;7.268;2023-05-13T14:00:07;5.80;;;2.70;;
15271;SDS011;7737;51.578;7.268;2023-05-13T14:02:34;4.72;;;2.45;;
15271;SDS011;7737;51.578;7.268;2023-05-13T14:05:01;3.83;;;2.67;;
15271;SDS011;7737;51.578;7.268;2023-05-13T14:07:27;5.70;;;5.20;;
15271;SDS011;7737;51.578;7.268;2023-05-13T14:09:54;4.72;;;2.70;;
15271;SDS011;7737;51.578;7.268;2023-05-13T14:12:20;3.72;;;2.80;;
15271;SDS011;7737;51.578;7.268;2023-05-13T14:14:47;5.28;;;2.85;;
15271;SDS011;7737;51.578;7.268;2023-05-13T14:17:15;4.30;;;2.80;;
15271;SDS011;7737;51.578;7.268;2023-05-13T14:19:41;4.40;;;2.90;;
15271;SDS011;7737;51.578;7.268;2023-05-13T14:22:08;5.55;;;2.80;;
15271;SDS011;7737;51.578;7.268;2023-05-13T14:24:34;3.58;;;2.50;;
15271;SDS011;7737;51.578;7.268;2023-05-13T14:27:01;4.75;;;2.30;;
15271;SDS011;7737;51.578;7.268;2023-05-13T14:29:27;5.25;;;2.30;;
15271;SDS011;7737;51.578;7.268;2023-05-13T14:31:54;4.32;;;2.30;;
15271;SDS011;7737;51.578;7.268;2023-05-13T14:34:22;2.85;;;2.20;;
15271;SDS011;7737;51.578;7.268;2023-05-13T14:36:49;3.92;;;1.98;;
15271;SDS011;7737;51.578;7.268;2023-05-13T14:39:16;3.20;;;2.30;;
15271;SDS011;7737;51.578;7.268;2023-05-13T14:41:42;3.10;;;2.20;;
15271;SDS011;7737;51.578;7.268;2023-05-13T14:44:10;3.08;;;2.38;;
15271;SDS011;7737;51.578;7.268;2023-05-13T14:46:36;3.47;;;2.13;;
15271;SDS011;7737;51.578;7.268;2023-05-13T14:49:05;2.58;;;2.30;;
15271;SDS011;7737;51.578;7.268;2023-05-13T14:51:34;3.35;;;2.60;;
15271;SDS011;7737;51.578;7.268;2023-05-13T14:54:01;2.65;;;2.08;;